This is the latest recevied weather packets stored in our database for station/object OE-11099. If no packets are shown the sender has not sent any weather packets the latest 10 day(s).
| Time | Temp. | Humidity | Pressure | Rain* | Wind** | Luminosity | Snow |
|---|---|---|---|---|---|---|---|
| 1788005478 | 24.44° C | 47% | 1014.3 hPa | 0 mm | - | 765 W/m² | - |
| 1788005106 | 24.44° C | 52% | 1014.3 hPa | 0 mm | - | 725 W/m² | - |
| 1788004506 | 23.89° C | 49% | 1014.8 hPa | 0 mm | - | 751 W/m² | - |
| 1788003679 | 23.89° C | 51% | 1014.9 hPa | 0 mm | - | 758 W/m² | - |
| 1788003306 | 23.33° C | 54% | 1015.1 hPa | 0 mm | - | 771 W/m² | - |
| 1788002706 | 23.33° C | 52% | 1015.2 hPa | 0 mm | - | 778 W/m² | - |
| 1788001879 | 22.78° C | 53% | 1015.4 hPa | 0 mm | - | 778 W/m² | - |
| 1788001505 | 22.78° C | 50% | 1015.7 hPa | 0 mm | - | 771 W/m² | - |
| 1788000906 | 23.89° C | 53% | 1015.4 hPa | 0 mm | - | 771 W/m² | - |
| 1788000079 | 23.33° C | 54% | 1015.6 hPa | 0 mm | - | 765 W/m² | - |
| 1787999706 | 23.33° C | 52% | 1015.7 hPa | 0 mm | - | 758 W/m² | - |
| 1787999106 | 22.78° C | 55% | 1015.8 hPa | 0 mm | - | 751 W/m² | - |
| 1787998279 | 22.22° C | 58% | 1016 hPa | 0 mm | - | 738 W/m² | - |
| 1787997905 | 22.22° C | 58% | 1016.3 hPa | 0 mm | - | 731 W/m² | - |
| 1787997306 | 22.22° C | 58% | 1016.2 hPa | 0 mm | - | 718 W/m² | - |
| 1787996479 | 22.78° C | 59% | 1016.2 hPa | 0 mm | - | 698 W/m² | - |
| 1787996106 | 22.22° C | 61% | 1016.5 hPa | 0 mm | - | 685 W/m² | - |
| 1787995506 | 20° C | 62% | 1016.9 hPa | 0 mm | - | 672 W/m² | - |
| 1787994679 | 20° C | 63% | 1017 hPa | 0 mm | - | 652 W/m² | - |
| 1787994306 | 19.44° C | 64% | 1017.2 hPa | 0 mm | - | 638 W/m² | - |
| 1787993706 | 19.44° C | 65% | 1017.3 hPa | 0 mm | - | 618 W/m² | - |
| 1787992878 | 20° C | 67% | 1017 hPa | 0 mm | - | 598 W/m² | - |
| 1787992505 | 18.89° C | 68% | 1017.2 hPa | 0 mm | - | 572 W/m² | - |
| 1787991905 | 18.89° C | 70% | 1017.3 hPa | 0 mm | - | 552 W/m² | - |
| 1787991079 | 18.33° C | 71% | 1017.6 hPa | 0 mm | - | 525 W/m² | - |
* Rain latest hour (hover to see other rain measurements)
** Current wind speed in m/s (hover to see current wind gust speed)